Aérodrome :
LOGIN :

S'inscrire | Disclaimer

   EN    FR    IT 

 










Légende :    VFR   VFR Marginal   IFR   IFR Intensif   IFR Très Intensif
Visi : 
Plafond : 
>= 8 km
>= 3000ft
5 à 8 km
1000 à 3000 ft
1500m à 5 km
500 à 1000 ft
800 à 1500m
200 à 500 ft
< 800m
< 200 ft
Symboles :   Orages  Brouillard  Fortes neiges  Fortes précipitations  Vent > 20 kt
SIGMETs :   Divers  Orages  Givrage  Turbulence  Onde Orograph.  Cendres Volcan.







- Altitude de l'aérodrome : 74 ft
- Code IATA : MRS
- Voir les cartes d'approche


LFML - Marseille / Marignane

DERNIER METAR :
  • 211000Z AUTO 10014KT 9999 FEW052 OVC092 21/04 Q1015 TEMPO SHRA

METARs EXPIRÉS :
  • 210930Z AUTO 16006KT 100V220 CAVOK 19/08 Q1016 TEMPO SHRA
  • 210900Z AUTO 07007KT 040V100 CAVOK 20/06 Q1016 TEMPO SHRA
  • 210830Z AUTO 06008KT CAVOK 19/05 Q1016 NOSIG
  • 210800Z AUTO 05010KT 9999 FEW012 OVC130 19/05 Q1016 NOSIG
  • 210730Z AUTO 07009KT CAVOK 19/05 Q1016 NOSIG

TAF TAF LFML
Valide du 21 à 09h jusqu'au 22 à 15h UTC


210800Z 2109/2215 09010KT CAVOK TX25/2212Z TN17/2206Z
TEMPO 2110/2113 SHRA BKN040 BKN110
TEMPO 2117/2120 09015G25KT
TEMPO 2204/2208 VRB05KT
ATIS : +33 4 42 31 15 15
Pas de NOTAMs connus pour ce terrain.
2 SIGMETs publiés pour la FIR Marseille (LFMM) :
 
Turbulence forte
LFMM SIGMET 5 VALID 210900/211200 LFPW
LFMM MARSEILLE FIR/UIR SEV TURB FCST WI N4145 E00945 - N4115 E00945 - N4115 E00815 - N4300 E00930 - N4145 E00945 SFC/FL080 STNR NC=
Turbulence forte
LFMM SIGMET 4 VALID 210850/211200 LFPW
LFMM MARSEILLE FIR/UIR SEV TURB FCST WI N4445 E00700 - N4400 E00700 - N4345 E00800 - N4245 E00545 - N4445 E00615 - N4445 E00700 SFC/FL080 STNR NC=



MET'MAP, la Météo Aéronautique d'un coup d'oeil ! - Copyright ORBIFLY Décembre 2007 - Disclaimer

ORBIFLY MET'MAP TEAM :

Programmation & Développement : Alexandra Zaïnal
Conception & Développement : Baudouin d'Aumeries
Co-Programmation & Développement : Marc-Olivier Méhu
Soutien technique & logistique : Manuel Goepfert

Contact : metmap@orbifly.com




SOURCES & CREDITS :

   NOAA